createdAt,value
2018-04-22T00:00:50.563Z,0.00
2018-04-22T00:01:50.493Z,0.00
2018-04-22T00:02:50.419Z,0.00
2018-04-22T00:03:50.350Z,0.00
2018-04-22T00:04:50.279Z,0.00
2018-04-22T00:05:50.206Z,0.00
2018-04-22T00:06:50.123Z,0.00
2018-04-22T00:07:50.055Z,0.00
2018-04-22T00:08:49.975Z,0.00
2018-04-22T00:09:49.910Z,0.00
2018-04-22T00:10:49.830Z,0.00
2018-04-22T00:11:49.780Z,0.00
2018-04-22T00:12:49.685Z,0.00
2018-04-22T00:13:49.617Z,0.00
2018-04-22T00:14:49.536Z,0.00
2018-04-22T00:15:49.469Z,0.00
2018-04-22T00:16:49.390Z,0.00
2018-04-22T00:17:49.326Z,0.00
2018-04-22T00:18:49.251Z,0.00
2018-04-22T00:19:49.195Z,0.00
2018-04-22T00:20:49.098Z,0.00
2018-04-22T00:21:49.030Z,0.00
2018-04-22T00:22:48.955Z,0.00
2018-04-22T00:23:48.928Z,0.00
2018-04-22T00:24:48.800Z,0.00
2018-04-22T00:25:48.737Z,0.00
2018-04-22T00:26:48.652Z,0.00
2018-04-22T00:27:48.593Z,0.00
2018-04-22T00:28:48.502Z,0.00
2018-04-22T00:29:48.444Z,0.00
2018-04-22T00:30:48.359Z,0.00
2018-04-22T00:31:48.298Z,0.00
2018-04-22T00:32:48.218Z,0.00
2018-04-22T00:33:48.148Z,0.00
2018-04-22T00:34:48.071Z,0.00
2018-04-22T00:35:48.000Z,0.00
2018-04-22T00:36:47.917Z,0.00
2018-04-22T00:37:47.857Z,0.00
2018-04-22T00:38:47.772Z,0.00
2018-04-22T00:39:47.707Z,0.00
2018-04-22T00:40:47.625Z,0.00
2018-04-22T00:41:47.561Z,0.00
2018-04-22T00:42:47.485Z,0.00
2018-04-22T00:43:47.414Z,0.00
2018-04-22T00:44:47.330Z,0.00
2018-04-22T00:45:47.270Z,0.00
2018-04-22T00:46:47.188Z,0.00
2018-04-22T00:47:47.118Z,0.00
2018-04-22T00:48:47.036Z,0.00
2018-04-22T00:49:46.973Z,0.00
2018-04-22T00:50:46.890Z,0.00
2018-04-22T00:51:46.822Z,0.00
2018-04-22T00:52:46.744Z,0.00
2018-04-22T00:53:46.672Z,0.00
2018-04-22T00:54:46.594Z,0.00
2018-04-22T00:55:46.531Z,0.00
2018-04-22T00:56:46.446Z,0.00
2018-04-22T00:57:46.382Z,0.00
2018-04-22T00:58:46.298Z,0.00
2018-04-22T00:59:46.234Z,0.00
2018-04-22T01:00:46.152Z,0.00
2018-04-22T01:01:46.090Z,0.00
2018-04-22T01:02:46.023Z,0.00
2018-04-22T01:03:45.939Z,0.00
2018-04-22T01:04:45.857Z,0.00
2018-04-22T01:05:45.788Z,0.00
2018-04-22T01:06:45.708Z,0.00
2018-04-22T01:07:45.642Z,0.00
2018-04-22T01:08:45.562Z,0.00
2018-04-22T01:09:45.498Z,0.00
2018-04-22T01:10:45.421Z,0.00
2018-04-22T01:11:45.347Z,0.00
2018-04-22T01:12:45.267Z,0.00
2018-04-22T01:13:45.199Z,0.00
2018-04-22T01:14:45.116Z,0.00
2018-04-22T01:15:45.050Z,0.00
2018-04-22T01:16:44.972Z,0.00
2018-04-22T01:17:44.903Z,0.00
2018-04-22T01:18:44.821Z,0.00
2018-04-22T01:19:44.756Z,0.00
2018-04-22T01:20:44.674Z,0.00
2018-04-22T01:21:44.609Z,0.00
2018-04-22T01:22:44.528Z,0.00
2018-04-22T01:23:44.461Z,0.00
2018-04-22T01:24:44.379Z,0.00
2018-04-22T01:25:44.320Z,0.00
2018-04-22T01:26:44.233Z,0.00
2018-04-22T01:27:44.174Z,0.00
2018-04-22T01:28:44.083Z,0.00
2018-04-22T01:29:44.018Z,0.00
2018-04-22T01:30:43.941Z,0.00
2018-04-22T01:31:43.873Z,0.00
2018-04-22T01:32:43.795Z,0.00
2018-04-22T01:33:43.727Z,0.00
2018-04-22T01:34:43.640Z,0.00
2018-04-22T01:35:43.568Z,0.00
2018-04-22T01:36:43.501Z,0.00
2018-04-22T01:37:43.420Z,0.00
2018-04-22T01:38:43.357Z,0.00
2018-04-22T01:39:43.271Z,0.00
2018-04-22T01:40:43.204Z,0.00
2018-04-22T01:41:43.124Z,0.00
2018-04-22T01:42:43.060Z,0.00
2018-04-22T01:43:42.975Z,0.00
2018-04-22T01:44:42.912Z,0.00
2018-04-22T01:45:42.826Z,0.00
2018-04-22T01:46:42.763Z,0.00
2018-04-22T01:47:42.678Z,0.00
2018-04-22T01:48:42.610Z,0.00
2018-04-22T01:49:42.532Z,0.00
2018-04-22T01:50:42.462Z,0.00
2018-04-22T01:51:42.379Z,0.00
2018-04-22T01:52:42.313Z,0.00
2018-04-22T01:53:42.237Z,0.00
2018-04-22T01:54:42.165Z,0.00
2018-04-22T01:55:42.079Z,0.00
2018-04-22T01:56:42.017Z,0.00
2018-04-22T01:57:41.931Z,0.00
2018-04-22T01:58:41.864Z,0.00
2018-04-22T01:59:41.782Z,0.00
2018-04-22T02:00:41.715Z,0.00
2018-04-22T02:01:41.636Z,0.00
2018-04-22T02:02:41.565Z,0.00
2018-04-22T02:03:41.484Z,0.00
2018-04-22T02:04:41.419Z,0.00
2018-04-22T02:05:41.341Z,0.00
2018-04-22T02:06:41.267Z,0.00
2018-04-22T02:07:41.188Z,0.00
2018-04-22T02:08:41.125Z,0.00
2018-04-22T02:09:41.034Z,0.00
2018-04-22T02:10:40.969Z,0.00
2018-04-22T02:11:40.888Z,0.00
2018-04-22T02:12:40.817Z,0.00
2018-04-22T02:13:40.743Z,0.00
2018-04-22T02:14:40.670Z,0.00
2018-04-22T02:15:40.588Z,0.00
2018-04-22T02:16:40.521Z,0.00
2018-04-22T02:17:40.439Z,0.00
2018-04-22T02:18:40.371Z,0.00
2018-04-22T02:19:40.288Z,0.00
2018-04-22T02:20:40.222Z,0.00
2018-04-22T02:21:40.137Z,0.00
2018-04-22T02:22:40.080Z,0.00
2018-04-22T02:23:39.994Z,0.00
2018-04-22T02:24:39.924Z,0.00
2018-04-22T02:25:39.840Z,0.00
2018-04-22T02:26:39.773Z,0.00
2018-04-22T02:27:39.692Z,0.00
2018-04-22T02:28:39.618Z,0.00
2018-04-22T02:29:39.544Z,0.00
2018-04-22T02:30:39.475Z,0.00
2018-04-22T02:31:39.390Z,0.00
2018-04-22T02:32:39.327Z,0.00
2018-04-22T02:33:39.241Z,0.00
2018-04-22T02:34:39.172Z,0.00
2018-04-22T02:35:39.090Z,0.00
2018-04-22T02:36:40.023Z,0.00
2018-04-22T02:37:38.940Z,0.00
2018-04-22T02:38:38.872Z,0.00
2018-04-22T02:39:38.787Z,0.00
2018-04-22T02:40:38.722Z,0.00
2018-04-22T02:41:38.638Z,0.00
2018-04-22T02:42:38.570Z,0.00
2018-04-22T02:43:38.532Z,0.00
2018-04-22T02:44:38.421Z,0.00
2018-04-22T02:45:38.339Z,0.00
2018-04-22T02:46:38.271Z,0.00
2018-04-22T02:47:38.188Z,0.00
2018-04-22T02:48:38.120Z,0.00
2018-04-22T02:49:38.038Z,0.00
2018-04-22T02:50:37.973Z,0.00
2018-04-22T02:51:37.885Z,0.00
2018-04-22T02:52:37.820Z,0.00
2018-04-22T02:53:37.739Z,0.00
2018-04-22T02:54:37.669Z,0.00
2018-04-22T02:55:37.587Z,0.00
2018-04-22T02:56:37.525Z,0.00
2018-04-22T02:57:37.437Z,0.00
2018-04-22T02:58:37.369Z,0.00
2018-04-22T02:59:37.285Z,0.00
2018-04-22T03:00:37.223Z,0.00
2018-04-22T03:01:37.135Z,0.00
2018-04-22T03:02:37.067Z,0.00
2018-04-22T03:03:36.984Z,0.00
2018-04-22T03:04:36.920Z,0.00
2018-04-22T03:05:36.834Z,0.00
2018-04-22T03:06:36.766Z,0.00
2018-04-22T03:07:36.683Z,0.00
2018-04-22T03:08:36.618Z,0.00
2018-04-22T03:09:36.533Z,0.00
2018-04-22T03:10:36.464Z,0.00
2018-04-22T03:11:36.380Z,0.00
2018-04-22T03:12:36.311Z,0.00
2018-04-22T03:13:36.228Z,0.00
2018-04-22T03:14:36.162Z,0.00
2018-04-22T03:15:36.081Z,0.00
2018-04-22T03:16:36.009Z,0.00
2018-04-22T03:17:35.929Z,0.00
2018-04-22T03:18:35.863Z,0.00
2018-04-22T03:19:35.773Z,0.00
2018-04-22T03:20:35.713Z,0.00
2018-04-22T03:21:35.626Z,0.00
2018-04-22T03:22:35.558Z,0.00
2018-04-22T03:23:35.479Z,0.00
2018-04-22T03:24:35.410Z,0.00
2018-04-22T03:25:35.329Z,0.00
2018-04-22T03:26:35.256Z,0.00
2018-04-22T03:27:35.174Z,0.00
2018-04-22T03:28:35.106Z,0.00
2018-04-22T03:29:35.023Z,0.00
2018-04-22T03:30:34.955Z,0.00
2018-04-22T03:31:34.881Z,0.00
2018-04-22T03:32:34.805Z,0.00
2018-04-22T03:33:34.719Z,0.00
2018-04-22T03:34:34.656Z,0.00
2018-04-22T03:35:34.568Z,0.00
2018-04-22T03:36:34.503Z,0.00
2018-04-22T03:37:34.426Z,0.00
2018-04-22T03:38:34.353Z,0.00
2018-04-22T03:39:34.269Z,0.00
2018-04-22T03:40:34.300Z,0.00
2018-04-22T03:41:34.119Z,0.00
2018-04-22T03:42:34.102Z,0.00
2018-04-22T03:43:33.970Z,0.00
2018-04-22T03:44:33.903Z,0.00
2018-04-22T03:45:33.819Z,0.00
2018-04-22T03:46:33.747Z,0.00
2018-04-22T03:47:33.670Z,0.00
2018-04-22T03:48:33.598Z,0.00
2018-04-22T03:49:33.508Z,0.00
2018-04-22T03:50:33.446Z,0.00
2018-04-22T03:51:33.363Z,0.00
2018-04-22T03:52:33.294Z,4.00
2018-04-22T03:53:33.217Z,0.00
2018-04-22T03:54:33.144Z,0.00
2018-04-22T03:55:33.065Z,0.00
2018-04-22T03:56:32.993Z,4.00
2018-04-22T03:57:32.909Z,0.00
2018-04-22T03:58:32.843Z,4.00
2018-04-22T03:59:32.760Z,0.00
2018-04-22T04:00:32.691Z,4.00
2018-04-22T04:01:32.608Z,4.00
2018-04-22T04:02:32.604Z,4.00
2018-04-22T04:03:32.458Z,4.00
2018-04-22T04:04:32.424Z,4.00
2018-04-22T04:05:32.303Z,4.00
2018-04-22T04:06:32.324Z,4.00
2018-04-22T04:07:32.158Z,8.00
2018-04-22T04:08:32.131Z,8.00
2018-04-22T04:09:31.999Z,12.00
2018-04-22T04:10:31.939Z,12.00
2018-04-22T04:11:31.856Z,8.00
2018-04-22T04:12:31.855Z,12.00
2018-04-22T04:13:31.696Z,12.00
2018-04-22T04:14:31.665Z,12.00
2018-04-22T04:15:31.545Z,20.00
2018-04-22T04:16:31.477Z,20.00
2018-04-22T04:17:31.389Z,20.00
2018-04-22T04:18:31.378Z,20.00
2018-04-22T04:19:31.242Z,20.00
2018-04-22T04:20:31.186Z,24.00
2018-04-22T04:21:31.092Z,24.00
2018-04-22T04:22:31.021Z,28.00
2018-04-22T04:23:30.937Z,28.00
2018-04-22T04:24:30.907Z,32.00
2018-04-22T04:25:30.785Z,32.00
2018-04-22T04:26:30.818Z,36.00
2018-04-22T04:27:30.635Z,36.00
2018-04-22T04:28:30.624Z,36.00
2018-04-22T04:29:30.483Z,40.00
2018-04-22T04:30:30.437Z,44.00
2018-04-22T04:31:30.332Z,44.00
2018-04-22T04:32:30.343Z,44.00
2018-04-22T04:33:30.179Z,48.00
2018-04-22T04:34:30.152Z,52.00
2018-04-22T04:35:30.021Z,52.00
2018-04-22T04:36:30.063Z,52.00
2018-04-22T04:37:29.875Z,56.00
2018-04-22T04:38:29.869Z,64.00
2018-04-22T04:39:29.722Z,68.00
2018-04-22T04:40:29.682Z,72.00
2018-04-22T04:41:29.571Z,76.00
2018-04-22T04:42:29.590Z,84.00
2018-04-22T04:43:29.482Z,88.00
2018-04-22T04:44:29.397Z,92.00
2018-04-22T04:45:29.270Z,96.00
2018-04-22T04:46:29.210Z,100.00
2018-04-22T04:47:29.115Z,104.00
2018-04-22T04:48:29.050Z,104.00
2018-04-22T04:49:28.963Z,104.00
2018-04-22T04:50:28.904Z,108.00
2018-04-22T04:51:28.810Z,112.00
2018-04-22T04:52:28.741Z,112.00
2018-04-22T04:53:28.663Z,116.00
2018-04-22T04:54:28.650Z,120.00
2018-04-22T04:55:28.507Z,124.00
2018-04-22T04:56:28.442Z,128.00
2018-04-22T04:57:28.354Z,132.00
2018-04-22T04:58:28.286Z,136.00
2018-04-22T04:59:28.211Z,132.00
2018-04-22T05:00:28.134Z,140.00
2018-04-22T05:01:28.052Z,140.00
2018-04-22T05:02:27.983Z,148.00
2018-04-22T05:03:27.902Z,148.00
2018-04-22T05:04:27.892Z,156.00
2018-04-22T05:05:27.747Z,160.00
2018-04-22T05:06:27.701Z,160.00
2018-04-22T05:07:27.595Z,164.00
2018-04-22T05:08:27.614Z,164.00
2018-04-22T05:09:27.444Z,168.00
2018-04-22T05:10:27.421Z,172.00
2018-04-22T05:11:27.295Z,176.00
2018-04-22T05:12:27.333Z,180.00
2018-04-22T05:13:27.140Z,180.00
2018-04-22T05:14:27.140Z,184.00
2018-04-22T05:15:26.988Z,188.00
2018-04-22T05:16:26.949Z,192.00
2018-04-22T05:17:26.835Z,196.00
2018-04-22T05:18:26.858Z,204.00
2018-04-22T05:19:26.680Z,208.00
2018-04-22T05:20:26.606Z,208.00
2018-04-22T05:21:26.533Z,212.00
2018-04-22T05:22:26.507Z,216.00
2018-04-22T05:23:26.377Z,220.00
2018-04-22T05:24:26.410Z,224.00
2018-04-22T05:25:26.228Z,236.00
2018-04-22T05:26:26.221Z,240.00
2018-04-22T05:27:26.077Z,248.00
2018-04-22T05:28:26.137Z,252.00
2018-04-22T05:29:25.937Z,264.00
2018-04-22T05:30:25.944Z,268.00
2018-04-22T05:31:25.775Z,280.00
2018-04-22T05:32:25.752Z,288.00
2018-04-22T05:33:25.624Z,296.00
2018-04-22T05:34:25.662Z,300.00
2018-04-22T05:35:25.470Z,308.00
2018-04-22T05:36:25.484Z,316.00
2018-04-22T05:37:25.317Z,324.00
2018-04-22T05:38:25.383Z,332.00
2018-04-22T05:39:25.204Z,336.00
2018-04-22T05:40:25.194Z,340.00
2018-04-22T05:41:25.016Z,340.00
2018-04-22T05:42:24.998Z,348.00
2018-04-22T05:43:24.867Z,352.00
2018-04-22T05:44:24.926Z,356.00
2018-04-22T05:45:24.715Z,360.00
2018-04-22T05:46:24.720Z,364.00
2018-04-22T05:47:24.565Z,364.00
2018-04-22T05:48:24.533Z,360.00
2018-04-22T05:49:24.416Z,360.00
2018-04-22T05:50:24.441Z,360.00
2018-04-22T05:51:24.261Z,356.00
2018-04-22T05:52:24.249Z,356.00
2018-04-22T05:53:24.110Z,352.00
2018-04-22T05:54:24.163Z,352.00
2018-04-22T05:55:23.960Z,352.00
2018-04-22T05:56:23.972Z,348.00
2018-04-22T05:57:23.814Z,352.00
2018-04-22T05:58:23.855Z,356.00
2018-04-22T05:59:23.657Z,324.00
2018-04-22T06:00:23.701Z,328.00
2018-04-22T06:01:23.508Z,368.00
2018-04-22T06:02:23.507Z,368.00
2018-04-22T06:03:23.367Z,352.00
2018-04-22T06:04:23.414Z,396.00
2018-04-22T06:05:23.207Z,392.00
2018-04-22T06:06:23.224Z,380.00
2018-04-22T06:07:23.055Z,392.00
2018-04-22T06:08:23.133Z,388.00
2018-04-22T06:09:22.916Z,392.00
2018-04-22T06:10:22.942Z,404.00
2018-04-22T06:11:22.757Z,400.00
2018-04-22T06:12:22.753Z,400.00
2018-04-22T06:13:22.614Z,400.00
2018-04-22T06:14:22.662Z,372.00
2018-04-22T06:15:22.460Z,428.00
2018-04-22T06:16:22.472Z,432.00
2018-04-22T06:17:22.365Z,440.00
2018-04-22T06:18:22.383Z,444.00
2018-04-22T06:19:22.157Z,452.00
2018-04-22T06:20:22.192Z,464.00
2018-04-22T06:21:22.009Z,468.00
2018-04-22T06:22:22.002Z,480.00
2018-04-22T06:23:21.856Z,500.00
2018-04-22T06:24:21.914Z,516.00
2018-04-22T06:25:21.700Z,528.00
2018-04-22T06:26:21.720Z,536.00
2018-04-22T06:27:21.554Z,544.00
2018-04-22T06:28:21.686Z,548.00
2018-04-22T06:29:21.406Z,556.00
2018-04-22T06:30:21.330Z,568.00
2018-04-22T06:31:21.261Z,552.00
2018-04-22T06:32:21.249Z,536.00
2018-04-22T06:33:21.102Z,536.00
2018-04-22T06:34:21.169Z,572.00
2018-04-22T06:35:20.957Z,652.00
2018-04-22T06:36:20.925Z,652.00
2018-04-22T06:37:20.808Z,644.00
2018-04-22T06:38:20.883Z,624.00
2018-04-22T06:39:20.658Z,584.00
2018-04-22T06:40:20.749Z,596.00
2018-04-22T06:41:20.524Z,576.00
2018-04-22T06:42:20.505Z,640.00
2018-04-22T06:43:20.362Z,616.00
2018-04-22T06:44:20.415Z,596.00
2018-04-22T06:45:20.210Z,608.00
2018-04-22T06:46:20.224Z,624.00
2018-04-22T06:47:20.062Z,628.00
2018-04-22T06:48:20.135Z,616.00
2018-04-22T06:49:19.914Z,600.00
2018-04-22T06:50:19.943Z,584.00
2018-04-22T06:51:19.765Z,612.00
2018-04-22T06:52:19.852Z,588.00
2018-04-22T06:53:19.623Z,524.00
2018-04-22T06:54:19.664Z,536.00
2018-04-22T06:55:19.470Z,568.00
2018-04-22T06:56:19.484Z,596.00
2018-04-22T06:57:19.325Z,568.00
2018-04-22T06:58:19.380Z,596.00
2018-04-22T06:59:19.173Z,640.00
2018-04-22T07:00:19.198Z,792.00
2018-04-22T07:01:19.026Z,684.00
2018-04-22T07:02:19.101Z,696.00
2018-04-22T07:03:18.877Z,668.00
2018-04-22T07:04:18.916Z,688.00
2018-04-22T07:05:18.733Z,712.00
2018-04-22T07:06:18.828Z,760.00
2018-04-22T07:07:18.588Z,864.00
2018-04-22T07:08:18.633Z,672.00
2018-04-22T07:09:18.449Z,668.00
2018-04-22T07:10:18.451Z,728.00
2018-04-22T07:11:18.286Z,704.00
2018-04-22T07:12:18.214Z,776.00
2018-04-22T07:13:18.261Z,844.00
2018-04-22T07:14:18.079Z,720.00
2018-04-22T07:15:18.073Z,840.00
2018-04-22T07:16:17.930Z,704.00
2018-04-22T07:17:17.982Z,1156.00
2018-04-22T07:18:17.781Z,836.00
2018-04-22T07:19:17.707Z,1152.00
2018-04-22T07:20:17.798Z,1160.00
2018-04-22T07:21:17.553Z,744.00
2018-04-22T07:22:17.610Z,1272.00
2018-04-22T07:23:17.418Z,1296.00
2018-04-22T07:24:17.448Z,1040.00
2018-04-22T07:25:17.322Z,1076.00
2018-04-22T07:26:17.337Z,1352.00
2018-04-22T07:27:17.115Z,1072.00
2018-04-22T07:28:18.159Z,1172.00
2018-04-22T07:29:17.024Z,1512.00
2018-04-22T07:30:16.905Z,1544.00
2018-04-22T07:31:16.949Z,1560.00
2018-04-22T07:32:16.752Z,1616.00
2018-04-22T07:33:16.760Z,1632.00
2018-04-22T07:34:16.607Z,1576.00
2018-04-22T07:35:16.677Z,1340.00
2018-04-22T07:36:16.461Z,784.00
2018-04-22T07:37:16.481Z,1592.00
2018-04-22T07:38:16.319Z,1768.00
2018-04-22T07:39:16.393Z,1864.00
2018-04-22T07:40:16.172Z,2016.00
2018-04-22T07:41:16.198Z,1872.00
2018-04-22T07:42:16.028Z,2032.00
2018-04-22T07:43:16.110Z,2020.00
2018-04-22T07:44:15.883Z,1748.00
2018-04-22T07:45:15.919Z,980.00
2018-04-22T07:46:15.738Z,2032.00
2018-04-22T07:47:15.841Z,796.00
2018-04-22T07:48:15.596Z,776.00
2018-04-22T07:49:15.639Z,836.00
2018-04-22T07:50:15.451Z,1080.00
2018-04-22T07:51:15.551Z,2252.00
2018-04-22T07:52:15.311Z,984.00
2018-04-22T07:53:15.258Z,1532.00
2018-04-22T07:54:15.173Z,2004.00
2018-04-22T07:55:15.101Z,2304.00
2018-04-22T07:56:15.025Z,2276.00
2018-04-22T07:57:14.963Z,2220.00
2018-04-22T07:58:14.888Z,2188.00
2018-04-22T07:59:14.992Z,2336.00
2018-04-22T08:00:14.768Z,2300.00
2018-04-22T08:01:14.684Z,1248.00
2018-04-22T08:02:14.607Z,2300.00
2018-04-22T08:03:14.530Z,2312.00
2018-04-22T08:04:14.456Z,2388.00
2018-04-22T08:05:14.528Z,2364.00
2018-04-22T08:06:14.319Z,2384.00
2018-04-22T08:07:14.333Z,2236.00
2018-04-22T08:08:14.175Z,2020.00
2018-04-22T08:09:14.106Z,2348.00
2018-04-22T08:10:14.041Z,2396.00
2018-04-22T08:11:14.053Z,2424.00
2018-04-22T08:12:13.889Z,2444.00
2018-04-22T08:13:13.965Z,2436.00
2018-04-22T08:14:13.750Z,2388.00
2018-04-22T08:15:13.773Z,2416.00
2018-04-22T08:16:13.621Z,2424.00
2018-04-22T08:17:13.683Z,2424.00
2018-04-22T08:18:13.474Z,2452.00
2018-04-22T08:19:13.497Z,2424.00
2018-04-22T08:20:13.340Z,2368.00
2018-04-22T08:21:13.402Z,2432.00
2018-04-22T08:22:13.202Z,2564.00
2018-04-22T08:23:13.121Z,2596.00
2018-04-22T08:24:13.223Z,2592.00
2018-04-22T08:25:12.991Z,2488.00
2018-04-22T08:26:13.037Z,924.00
2018-04-22T08:27:12.848Z,1328.00
2018-04-22T08:28:12.988Z,1308.00
2018-04-22T08:29:12.712Z,2652.00
2018-04-22T08:30:12.750Z,2648.00
2018-04-22T08:31:12.574Z,2680.00
2018-04-22T08:32:12.560Z,2628.00
2018-04-22T08:33:12.434Z,2580.00
2018-04-22T08:34:12.471Z,2196.00
2018-04-22T08:35:12.306Z,2592.00
2018-04-22T08:36:12.280Z,2672.00
2018-04-22T08:37:12.160Z,2736.00
2018-04-22T08:38:12.193Z,2712.00
2018-04-22T08:39:12.024Z,2684.00
2018-04-22T08:40:12.107Z,2736.00
2018-04-22T08:41:12.025Z,2436.00
2018-04-22T08:42:11.813Z,1116.00
2018-04-22T08:43:11.748Z,2024.00
2018-04-22T08:44:11.747Z,2828.00
2018-04-22T08:45:11.615Z,2852.00
2018-04-22T08:46:11.661Z,2832.00
2018-04-22T08:47:11.476Z,2908.00
2018-04-22T08:48:11.469Z,1120.00
2018-04-22T08:49:11.341Z,2036.00
2018-04-22T08:50:11.380Z,1552.00
2018-04-22T08:51:11.205Z,2112.00
2018-04-22T08:52:11.192Z,2864.00
2018-04-22T08:53:11.069Z,2836.00
2018-04-22T08:54:11.100Z,1508.00
2018-04-22T08:55:10.941Z,2848.00
2018-04-22T08:56:10.910Z,2220.00
2018-04-22T08:57:10.802Z,2676.00
2018-04-22T08:58:10.821Z,2712.00
2018-04-22T08:59:10.665Z,2748.00
2018-04-22T09:00:10.628Z,2776.00
2018-04-22T09:01:10.530Z,2752.00
2018-04-22T09:02:10.554Z,2764.00
2018-04-22T09:03:10.396Z,2768.00
2018-04-22T09:04:10.348Z,2756.00
2018-04-22T09:05:10.263Z,2744.00
2018-04-22T09:06:10.258Z,2768.00
2018-04-22T09:07:10.129Z,2768.00
2018-04-22T09:08:10.169Z,2740.00
2018-04-22T09:09:09.993Z,2736.00
2018-04-22T09:10:09.981Z,2704.00
2018-04-22T09:11:09.864Z,2708.00
2018-04-22T09:12:09.891Z,2716.00
2018-04-22T09:13:09.732Z,2724.00
2018-04-22T09:14:09.699Z,2720.00
2018-04-22T09:15:09.594Z,2728.00
2018-04-22T09:16:09.609Z,2768.00
2018-04-22T09:17:09.462Z,2724.00
2018-04-22T09:18:09.419Z,2736.00
2018-04-22T09:19:09.328Z,2732.00
2018-04-22T09:20:09.330Z,2724.00
2018-04-22T09:21:09.196Z,2724.00
2018-04-22T09:22:09.239Z,2756.00
2018-04-22T09:23:09.063Z,2772.00
2018-04-22T09:24:09.045Z,2772.00
2018-04-22T09:25:08.932Z,2772.00
2018-04-22T09:26:08.959Z,2768.00
2018-04-22T09:27:08.796Z,2792.00
2018-04-22T09:28:08.770Z,2784.00
2018-04-22T09:29:08.670Z,2764.00
2018-04-22T09:30:08.677Z,2788.00
2018-04-22T09:31:08.553Z,2792.00
2018-04-22T09:32:08.489Z,2784.00
2018-04-22T09:33:08.419Z,2776.00
2018-04-22T09:34:08.399Z,2804.00
2018-04-22T09:35:08.277Z,2796.00
2018-04-22T09:36:08.306Z,2800.00
2018-04-22T09:37:08.144Z,2792.00
2018-04-22T09:38:08.119Z,2772.00
2018-04-22T09:39:08.015Z,2756.00
2018-04-22T09:40:08.032Z,2760.00
2018-04-22T09:41:07.886Z,2772.00
2018-04-22T09:42:07.843Z,2788.00
2018-04-22T09:43:07.800Z,2776.00
2018-04-22T09:44:07.749Z,2760.00
2018-04-22T09:45:07.624Z,2724.00
2018-04-22T09:46:07.660Z,2632.00
2018-04-22T09:47:07.494Z,2672.00
2018-04-22T09:48:07.469Z,2652.00
2018-04-22T09:49:07.363Z,2692.00
2018-04-22T09:50:07.378Z,2688.00
2018-04-22T09:51:07.232Z,2700.00
2018-04-22T09:52:07.185Z,2732.00
2018-04-22T09:53:07.104Z,2740.00
2018-04-22T09:54:07.100Z,2732.00
2018-04-22T09:55:06.975Z,2740.00
2018-04-22T09:56:07.010Z,2720.00
2018-04-22T09:57:06.847Z,2712.00
2018-04-22T09:58:06.819Z,2700.00
2018-04-22T09:59:06.719Z,2708.00
2018-04-22T10:00:06.726Z,2696.00
2018-04-22T10:01:06.589Z,2688.00
2018-04-22T10:02:06.522Z,2688.00
2018-04-22T10:03:06.637Z,2668.00
2018-04-22T10:04:06.394Z,2668.00
2018-04-22T10:05:06.446Z,2692.00
2018-04-22T10:06:06.275Z,2604.00
2018-04-22T10:07:06.358Z,2628.00
2018-04-22T10:08:06.139Z,2636.00
2018-04-22T10:09:06.075Z,2620.00
2018-04-22T10:10:06.012Z,2640.00
2018-04-22T10:11:06.076Z,2628.00
2018-04-22T10:12:05.878Z,2624.00
2018-04-22T10:13:05.991Z,2596.00
2018-04-22T10:14:05.764Z,2524.00
2018-04-22T10:15:05.903Z,2632.00
2018-04-22T10:16:05.627Z,2620.00
2018-04-22T10:17:05.712Z,2592.00
2018-04-22T10:18:05.499Z,2548.00
2018-04-22T10:19:05.622Z,2472.00
2018-04-22T10:20:05.374Z,2456.00
2018-04-22T10:21:05.310Z,2512.00
2018-04-22T10:22:05.441Z,2548.00
2018-04-22T10:23:05.182Z,2544.00
2018-04-22T10:24:05.248Z,2548.00
2018-04-22T10:25:05.056Z,2524.00
2018-04-22T10:26:05.160Z,2484.00
2018-04-22T10:27:04.924Z,2504.00
2018-04-22T10:28:05.078Z,2472.00
2018-04-22T10:29:04.801Z,2480.00
2018-04-22T10:30:04.878Z,2512.00
2018-04-22T10:31:04.677Z,2492.00
2018-04-22T10:32:04.790Z,2524.00
2018-04-22T10:33:04.553Z,2500.00
2018-04-22T10:34:04.601Z,2480.00
2018-04-22T10:35:04.420Z,2496.00
2018-04-22T10:36:04.546Z,2488.00
2018-04-22T10:37:04.295Z,2500.00
2018-04-22T10:38:04.429Z,2504.00
2018-04-22T10:39:04.808Z,2464.00
2018-04-22T10:40:04.250Z,2468.00
2018-04-22T10:41:04.046Z,2400.00
2018-04-22T10:42:04.144Z,2416.00
2018-04-22T10:43:03.913Z,2448.00
2018-04-22T10:44:03.955Z,2444.00
2018-04-22T10:45:03.792Z,2496.00
2018-04-22T10:46:03.863Z,2492.00
2018-04-22T10:47:03.669Z,2464.00
2018-04-22T10:48:03.773Z,2460.00
2018-04-22T10:49:03.536Z,2456.00
2018-04-22T10:50:03.687Z,2472.00
2018-04-22T10:51:03.412Z,2464.00
2018-04-22T10:52:03.495Z,2460.00
2018-04-22T10:53:03.287Z,2456.00
2018-04-22T10:54:03.404Z,2444.00
2018-04-22T10:55:03.159Z,2448.00
2018-04-22T10:56:03.318Z,2440.00
2018-04-22T10:57:03.036Z,2432.00
2018-04-22T10:58:15.004Z,2416.00
2018-04-22T10:59:02.912Z,2388.00
2018-04-22T11:00:03.037Z,2384.00
2018-04-22T11:01:02.785Z,2392.00
2018-04-22T11:02:02.853Z,2368.00
2018-04-22T11:03:02.661Z,2372.00
2018-04-22T11:04:02.760Z,2360.00
2018-04-22T11:05:02.537Z,2336.00
2018-04-22T11:06:02.470Z,2336.00
2018-04-22T11:07:02.412Z,2344.00
2018-04-22T11:08:02.480Z,2300.00
2018-04-22T11:09:02.286Z,2300.00
2018-04-22T11:10:02.391Z,2304.00
2018-04-22T11:11:02.158Z,2344.00
2018-04-22T11:12:02.302Z,2332.00
2018-04-22T11:13:02.036Z,2340.00
2018-04-22T11:14:02.111Z,2316.00
2018-04-22T11:15:01.909Z,2308.00
2018-04-22T11:16:02.021Z,2284.00
2018-04-22T11:17:01.784Z,2280.00
2018-04-22T11:18:01.946Z,2288.00
2018-04-22T11:19:01.662Z,2264.00
2018-04-22T11:20:01.743Z,2256.00
2018-04-22T11:21:01.533Z,2240.00
2018-04-22T11:22:01.687Z,2236.00
2018-04-22T11:23:01.411Z,2240.00
2018-04-22T11:24:01.567Z,2228.00
2018-04-22T11:25:01.283Z,2256.00
2018-04-22T11:26:01.372Z,2252.00
2018-04-22T11:27:01.164Z,2256.00
2018-04-22T11:28:01.285Z,2040.00
2018-04-22T11:29:01.037Z,904.00
2018-04-22T11:30:01.198Z,860.00
2018-04-22T11:31:00.919Z,832.00
2018-04-22T11:32:00.894Z,1200.00
2018-04-22T11:33:00.787Z,2224.00
2018-04-22T11:34:00.808Z,2188.00
2018-04-22T11:35:00.664Z,2268.00
2018-04-22T11:36:00.719Z,2276.00
2018-04-22T11:37:00.547Z,2276.00
2018-04-22T11:38:00.525Z,2196.00
2018-04-22T11:39:00.414Z,2148.00
2018-04-22T11:40:00.437Z,2192.00
2018-04-22T11:41:00.296Z,2200.00
2018-04-22T11:42:00.395Z,2224.00
2018-04-22T11:43:00.176Z,2232.00
2018-04-22T11:44:00.158Z,2208.00
2018-04-22T11:45:00.138Z,2228.00
2018-04-22T11:46:00.075Z,2212.00
2018-04-22T11:46:59.925Z,2200.00
2018-04-22T11:47:59.861Z,2196.00
2018-04-22T11:49:10.439Z,2204.00
2018-04-22T11:49:59.736Z,2164.00
2018-04-22T11:50:59.694Z,2184.00
2018-04-22T11:51:59.617Z,2160.00
2018-04-22T11:52:59.604Z,2164.00
2018-04-22T11:53:59.488Z,2188.00
2018-04-22T11:54:59.512Z,2168.00
2018-04-22T11:55:59.366Z,2220.00
2018-04-22T11:56:59.324Z,2176.00
2018-04-22T11:57:59.242Z,2212.00
2018-04-22T11:58:59.233Z,2000.00
2018-04-22T11:59:59.239Z,792.00
2018-04-22T12:00:59.147Z,808.00
2018-04-22T12:01:58.995Z,876.00
2018-04-22T12:02:58.953Z,880.00
2018-04-22T12:03:58.873Z,1984.00
2018-04-22T12:04:58.865Z,2048.00
2018-04-22T12:05:58.749Z,788.00
2018-04-22T12:06:58.777Z,956.00
2018-04-22T12:07:58.629Z,1420.00
2018-04-22T12:08:58.587Z,1952.00
2018-04-22T12:09:58.511Z,840.00
2018-04-22T12:10:58.491Z,1916.00
2018-04-22T12:11:58.375Z,1024.00
2018-04-22T12:12:58.407Z,1808.00
2018-04-22T12:13:58.255Z,1640.00
2018-04-22T12:14:58.215Z,1832.00
2018-04-22T12:15:58.132Z,848.00
2018-04-22T12:16:58.073Z,1940.00
2018-04-22T12:17:58.004Z,1060.00
2018-04-22T12:18:58.037Z,900.00
2018-04-22T12:19:57.884Z,1428.00
2018-04-22T12:20:57.847Z,1900.00
2018-04-22T12:21:57.763Z,2024.00
2018-04-22T12:22:57.753Z,2116.00
2018-04-22T12:23:57.634Z,2116.00
2018-04-22T12:24:57.592Z,2080.00
2018-04-22T12:25:57.574Z,2068.00
2018-04-22T12:26:57.448Z,2072.00
2018-04-22T12:27:57.484Z,2060.00
2018-04-22T12:28:57.329Z,2032.00
2018-04-22T12:29:57.292Z,852.00
2018-04-22T12:30:57.204Z,812.00
2018-04-22T12:31:57.205Z,860.00
2018-04-22T12:32:57.076Z,1996.00
2018-04-22T12:33:57.117Z,1484.00
2018-04-22T12:34:56.957Z,1676.00
2018-04-22T12:35:56.925Z,2008.00